Time;durP1;ratioP1;P1;durP2;ratioP2;P2;SDS_P1;SDS_P2;PMS_P1;PMS_P2;Temp;Humidity;BMP_temperature;BMP_pressure;BME280_temperature;BME280_humidity;BME280_pressure;Samples;Min_cycle;Max_cycle;Signal;HPM_P1;HPM_P2
2022/08/13 00:00:16;;;;;;;;;;;;;;;18.72;76.68;100239.32;1432906;91;20313;-86
2022/08/13 00:02:43;;;;;;;;;;;;;;;18.71;76.42;100229.64;1438443;91;20600;-85
2022/08/13 00:05:10;;;;;;;;;;;;;;;18.70;77.16;100237.35;1429537;91;20798;-85
2022/08/13 00:07:38;;;;;;;;;;;;;;;18.70;77.96;100227.97;1427045;91;20424;-85
2022/08/13 00:10:11;;;;;;;;;;;;;;;18.69;77.66;100224.47;1431637;91;20477;-85
2022/08/13 00:15:28;;;;;;;;;;;;;;;18.68;78.12;100216.66;1430424;91;20878;-86
2022/08/13 00:17:51;;;;;;;;;;;;;;;18.65;78.78;100214.39;1431402;91;20426;-85
2022/08/13 00:20:20;;;;;;;;;;;;;;;18.63;78.96;100217.77;1429709;91;20394;-85
2022/08/13 00:22:47;;;;;;;;;;;;;;;18.59;79.46;100213.34;1429983;91;20805;-86
2022/08/13 00:25:16;;;;;;;;;;;;;;;18.57;79.44;100215.92;1433579;91;20790;-85
2022/08/13 00:27:47;;;;;;;;;;;;;;;18.56;79.05;100211.57;1432218;91;21027;-86
2022/08/13 00:30:15;;;;;;;;;;;;;;;18.51;79.31;100205.50;1440041;91;20313;-85
2022/08/13 00:32:45;;;;;;;;;;;;;;;18.48;79.49;100202.72;1431179;91;20350;-85
2022/08/13 00:35:12;;;;;;;;;;;;;;;18.46;79.26;100211.46;1427319;91;21078;-85
2022/08/13 00:37:41;;;;;;;;;;;;;;;18.41;79.77;100211.77;1431722;91;20306;-85
2022/08/13 00:40:13;;;;;;;;;;;;;;;18.39;79.47;100207.97;1432549;91;20365;-85
2022/08/13 00:42:39;;;;;;;;;;;;;;;18.35;80.43;100206.70;1432153;91;20410;-85
2022/08/13 00:45:07;;;;;;;;;;;;;;;18.35;79.04;100206.70;1434960;91;20320;-85
2022/08/13 00:50:20;;;;;;;;;;;;;;;18.27;81.04;100201.56;1430940;91;20312;-85
2022/08/13 00:52:48;;;;;;;;;;;;;;;18.23;80.74;100194.95;1433539;90;20335;-85
2022/08/13 00:55:17;;;;;;;;;;;;;;;18.22;80.90;100198.14;1438864;89;20365;-85
2022/08/13 00:57:46;;;;;;;;;;;;;;;18.20;80.71;100194.02;1439873;91;20349;-85
2022/08/13 01:00:16;;;;;;;;;;;;;;;18.17;80.96;100187.73;1442729;89;21620;-85
2022/08/13 01:02:44;;;;;;;;;;;;;;;18.17;79.85;100186.39;1439261;89;20818;-85
2022/08/13 01:05:11;;;;;;;;;;;;;;;18.16;80.02;100189.59;1438525;89;20387;-85
2022/08/13 01:07:41;;;;;;;;;;;;;;;18.16;80.72;100180.73;1433106;91;20357;-85
2022/08/13 01:10:11;;;;;;;;;;;;;;;18.09;80.95;100189.25;1438961;89;20804;-85
2022/08/13 01:12:38;;;;;;;;;;;;;;;18.07;81.32;100181.92;1444462;89;20369;-85
2022/08/13 01:15:06;;;;;;;;;;;;;;;18.06;81.19;100180.28;1440532;91;20290;-85
2022/08/13 01:17:35;;;;;;;;;;;;;;;18.04;81.80;100181.32;1445284;91;20416;-85
2022/08/13 01:20:03;;;;;;;;;;;;;;;18.01;81.89;100181.73;1440015;91;20379;-85
2022/08/13 01:22:29;;;;;;;;;;;;;;;17.98;82.16;100182.14;1438755;89;20327;-85
2022/08/13 01:24:55;;;;;;;;;;;;;;;17.94;82.82;100183.55;1438301;89;20388;-85
2022/08/13 01:27:25;;;;;;;;;;;;;;;17.89;81.68;100177.14;1442184;89;20426;-85
2022/08/13 01:29:51;;;;;;;;;;;;;;;17.84;82.34;100175.58;1437217;89;20343;-85
2022/08/13 01:32:21;;;;;;;;;;;;;;;17.78;82.76;100173.19;1442851;91;20387;-86
2022/08/13 01:34:48;;;;;;;;;;;;;;;17.71;83.20;100173.66;1437341;91;20254;-85
2022/08/13 01:37:14;;;;;;;;;;;;;;;17.69;83.59;100182.39;1437710;91;20334;-85
2022/08/13 01:39:40;;;;;;;;;;;;;;;17.66;84.81;100176.11;1443065;89;20841;-85
2022/08/13 01:42:09;;;;;;;;;;;;;;;17.68;84.76;100182.09;1442837;89;20497;-85
2022/08/13 01:44:35;;;;;;;;;;;;;;;17.68;84.86;100175.41;1439321;89;20379;-85
2022/08/13 01:52:34;;;;;;;;;;;;;;;17.70;85.15;100172.84;1439700;91;20297;-85
2022/08/13 01:55:05;;;;;;;;;;;;;;;17.71;83.81;100173.14;1442456;89;20973;-85
2022/08/13 01:57:33;;;;;;;;;;;;;;;17.71;84.34;100170.98;1432821;89;20327;-85
2022/08/13 02:00:00;;;;;;;;;;;;;;;17.67;84.15;100166.55;1440172;91;20898;-85
2022/08/13 02:02:27;;;;;;;;;;;;;;;17.66;84.48;100160.88;1434763;91;20322;-85
2022/08/13 02:04:56;;;;;;;;;;;;;;;17.62;85.09;100168.18;1441590;89;20313;-85
2022/08/13 02:07:22;;;;;;;;;;;;;;;17.57;84.91;100162.08;1435177;91;20904;-86
2022/08/13 02:09:48;;;;;;;;;;;;;;;17.55;85.00;100160.95;1437185;91;20314;-85
2022/08/13 02:12:15;;;;;;;;;;;;;;;17.56;83.98;100159.92;1442525;89;20350;-85
2022/08/13 02:14:42;;;;;;;;;;;;;;;17.54;85.54;100157.95;1439036;89;20312;-85
2022/08/13 02:17:25;;;;;;;;;;;;;;;17.56;85.57;100157.77;1442726;91;20372;-85
2022/08/13 02:19:55;;;;;;;;;;;;;;;17.57;85.43;100154.05;1440306;91;20446;-85
2022/08/13 02:22:23;;;;;;;;;;;;;;;17.54;86.19;100159.28;1435272;91;20261;-85
2022/08/13 02:24:55;;;;;;;;;;;;;;;17.51;85.76;100154.33;1437703;90;20405;-85
2022/08/13 02:27:24;;;;;;;;;;;;;;;17.49;85.03;100154.22;1440692;89;20334;-84
2022/08/13 02:29:52;;;;;;;;;;;;;;;17.45;85.09;100152.46;1431480;89;20366;-85
2022/08/13 02:32:18;;;;;;;;;;;;;;;17.40;84.90;100150.06;1431873;91;20342;-84
2022/08/13 02:34:52;;;;;;;;;;;;;;;17.34;85.90;100145.00;1438689;89;20354;-84
2022/08/13 02:37:22;;;;;;;;;;;;;;;17.28;86.79;100145.80;1437185;88;20434;-84
2022/08/13 02:39:49;;;;;;;;;;;;;;;17.21;86.69;100141.76;1334845;90;20297;-84
2022/08/13 02:42:15;;;;;;;;;;;;;;;17.19;86.94;100138.97;1428561;90;20273;-83
2022/08/13 02:44:47;;;;;;;;;;;;;;;17.16;86.61;100136.17;1431080;88;20394;-83
2022/08/13 02:47:15;;;;;;;;;;;;;;;17.14;87.25;100135.02;1415759;91;20883;-84
2022/08/13 02:49:42;;;;;;;;;;;;;;;17.09;88.18;100133.47;1437310;91;20413;-83
2022/08/13 02:52:09;;;;;;;;;;;;;;;17.01;88.38;100132.28;1422782;91;20377;-84
2022/08/13 02:54:42;;;;;;;;;;;;;;;16.99;87.68;100134.33;1429556;89;20320;-84
2022/08/13 02:57:10;;;;;;;;;;;;;;;17.00;88.69;100131.95;1453497;89;20392;-84
2022/08/13 02:59:36;;;;;;;;;;;;;;;17.00;88.42;100138.64;1451092;89;20578;-84
2022/08/13 03:02:04;;;;;;;;;;;;;;;16.97;89.25;100135.02;1446645;89;20362;-83
2022/08/13 03:04:30;;;;;;;;;;;;;;;16.98;90.09;100135.36;1451462;91;20391;-85
2022/08/13 03:07:00;;;;;;;;;;;;;;;17.01;89.27;100139.48;1414120;91;20450;-85
2022/08/13 03:09:26;;;;;;;;;;;;;;;17.01;90.32;100136.30;1428709;90;20438;-85
2022/08/13 03:11:53;;;;;;;;;;;;;;;17.03;90.42;100136.09;1419400;91;20432;-85
2022/08/13 03:14:20;;;;;;;;;;;;;;;17.04;89.33;100131.89;1437200;90;20299;-85
2022/08/13 03:16:46;;;;;;;;;;;;;;;17.05;89.46;100131.38;1446268;90;20375;-85
2022/08/13 03:19:12;;;;;;;;;;;;;;;17.04;89.77;100134.56;1447708;90;20285;-85
2022/08/13 03:21:42;;;;;;;;;;;;;;;17.06;90.11;100139.70;1456692;90;20345;-85
2022/08/13 03:24:12;;;;;;;;;;;;;;;17.07;89.70;100142.70;1450635;90;20278;-85
2022/08/13 03:26:38;;;;;;;;;;;;;;;17.08;90.49;100138.48;1445455;90;20315;-85
2022/08/13 03:29:04;;;;;;;;;;;;;;;17.10;90.35;100139.13;1440950;90;20300;-86
2022/08/13 03:31:30;;;;;;;;;;;;;;;17.13;90.17;100137.39;1430768;90;20269;-85
2022/08/13 03:34:01;;;;;;;;;;;;;;;17.17;89.57;100138.33;1428647;91;20848;-85
2022/08/13 03:36:30;;;;;;;;;;;;;;;17.18;89.79;100144.02;1430913;91;20328;-85
2022/08/13 03:38:57;;;;;;;;;;;;;;;17.20;89.13;100140.60;1433054;91;20462;-85
2022/08/13 03:41:23;;;;;;;;;;;;;;;17.21;89.66;100143.61;1433040;91;20335;-85
2022/08/13 03:43:49;;;;;;;;;;;;;;;17.25;88.47;100142.18;1428677;91;21027;-85
2022/08/13 03:46:17;;;;;;;;;;;;;;;17.24;88.75;100140.02;1427201;91;20342;-85
2022/08/13 03:48:45;;;;;;;;;;;;;;;17.24;89.53;100136.53;1429220;91;20358;-85
2022/08/13 03:51:11;;;;;;;;;;;;;;;17.25;88.87;100130.14;1410183;91;20335;-85
2022/08/13 03:53:38;;;;;;;;;;;;;;;17.26;88.77;100135.80;1414905;91;20394;-85
2022/08/13 03:56:06;;;;;;;;;;;;;;;17.25;89.00;100137.66;1402275;92;20238;-85
2022/08/13 03:58:32;;;;;;;;;;;;;;;17.22;89.80;100133.22;1433395;90;20283;-85
2022/08/13 04:01:01;;;;;;;;;;;;;;;17.23;89.06;100129.51;1422410;90;21029;-85
2022/08/13 04:03:36;;;;;;;;;;;;;;;17.25;89.00;100132.82;1410201;90;20423;-85
2022/08/13 04:06:02;;;;;;;;;;;;;;;17.26;88.23;100127.29;1429179;90;20454;-83
2022/08/13 04:08:34;;;;;;;;;;;;;;;17.30;88.28;100139.75;1445013;90;20431;-83
2022/08/13 04:11:00;;;;;;;;;;;;;;;17.35;88.75;100138.64;1443636;90;20441;-83
2022/08/13 04:13:28;;;;;;;;;;;;;;;17.37;88.62;100133.90;1423047;90;20439;-83
2022/08/13 04:15:54;;;;;;;;;;;;;;;17.40;88.47;100127.33;1421152;90;20468;-82
2022/08/13 04:18:20;;;;;;;;;;;;;;;17.45;88.17;100121.69;1436499;90;20416;-83
2022/08/13 04:20:54;;;;;;;;;;;;;;;17.52;88.35;100121.22;1440209;90;20913;-83
2022/08/13 04:23:19;;;;;;;;;;;;;;;17.62;87.60;100121.34;1423718;90;20326;-83
2022/08/13 04:25:47;;;;;;;;;;;;;;;17.69;87.36;100120.33;1441805;90;20341;-83
2022/08/13 04:28:15;;;;;;;;;;;;;;;17.79;86.84;100115.98;1445234;90;20416;-83
2022/08/13 04:30:42;;;;;;;;;;;;;;;17.87;86.80;100115.80;1437421;90;20387;-83
2022/08/13 04:33:11;;;;;;;;;;;;;;;17.96;85.80;100107.05;1431952;90;20297;-85
2022/08/13 04:35:38;;;;;;;;;;;;;;;18.00;85.70;100117.66;1420624;90;20394;-85
2022/08/13 04:38:05;;;;;;;;;;;;;;;18.11;85.20;100110.88;1429409;90;20254;-85
2022/08/13 04:40:37;;;;;;;;;;;;;;;18.15;85.22;100112.92;1419868;92;20364;-85
2022/08/13 04:43:03;;;;;;;;;;;;;;;18.24;84.59;100110.88;1419042;90;20656;-84
2022/08/13 04:45:30;;;;;;;;;;;;;;;18.29;84.47;100115.11;1439480;90;20319;-85
2022/08/13 04:47:58;;;;;;;;;;;;;;;18.34;84.49;100113.16;1434956;90;20427;-85
2022/08/13 04:50:25;;;;;;;;;;;;;;;18.39;84.28;100110.17;1436526;90;20372;-85
2022/08/13 04:52:52;;;;;;;;;;;;;;;18.45;83.49;100113.36;1441278;90;20818;-85
2022/08/13 04:55:18;;;;;;;;;;;;;;;18.54;82.80;100109.14;1433753;90;20319;-85
2022/08/13 04:57:44;;;;;;;;;;;;;;;18.63;82.29;100110.56;1436334;89;20849;-85
2022/08/13 05:00:11;;;;;;;;;;;;;;;18.75;81.92;100104.09;1422818;91;20332;-85
2022/08/13 05:02:43;;;;;;;;;;;;;;;18.79;81.23;100107.49;1415620;91;20500;-85
2022/08/13 05:05:12;;;;;;;;;;;;;;;18.92;81.00;100102.60;1424903;91;21025;-85
2022/08/13 05:07:39;;;;;;;;;;;;;;;19.00;79.95;100096.20;1430990;91;20418;-86
2022/08/13 05:10:08;;;;;;;;;;;;;;;19.06;79.45;100092.15;1420996;91;20447;-85
2022/08/13 05:12:35;;;;;;;;;;;;;;;19.10;79.49;100094.73;1419576;91;20507;-85
2022/08/13 05:15:03;;;;;;;;;;;;;;;19.17;78.91;100096.04;1410946;91;20417;-85
2022/08/13 05:17:30;;;;;;;;;;;;;;;19.28;78.52;100094.04;1414839;91;20343;-85
2022/08/13 05:19:56;;;;;;;;;;;;;;;19.33;78.13;100077.28;1414347;91;20909;-85
2022/08/13 05:22:22;;;;;;;;;;;;;;;19.40;77.69;100075.41;1420785;91;20403;-85
2022/08/13 05:24:50;;;;;;;;;;;;;;;19.47;77.16;100077.53;1417610;91;20358;-85
2022/08/13 05:27:17;;;;;;;;;;;;;;;19.50;76.92;100080.30;1396004;91;20343;-85
2022/08/13 05:29:43;;;;;;;;;;;;;;;19.59;77.16;100082.55;1408631;91;20343;-85
2022/08/13 05:32:10;;;;;;;;;;;;;;;19.65;76.74;100079.55;1411792;91;20341;-85
2022/08/13 05:34:37;;;;;;;;;;;;;;;19.76;76.56;100079.36;1398836;91;20313;-85
2022/08/13 05:37:04;;;;;;;;;;;;;;;19.87;75.97;100084.56;1405150;91;20336;-85
2022/08/13 05:39:30;;;;;;;;;;;;;;;20.02;75.40;100081.89;1428745;91;20327;-85
2022/08/13 05:41:56;;;;;;;;;;;;;;;20.10;74.19;100082.13;1412178;91;20513;-85
2022/08/13 05:44:22;;;;;;;;;;;;;;;20.21;73.82;100082.76;1407675;91;20966;-85
2022/08/13 05:46:49;;;;;;;;;;;;;;;20.34;73.51;100082.34;1425721;91;20291;-85
2022/08/13 05:49:16;;;;;;;;;;;;;;;20.38;71.93;100080.87;1407515;91;20335;-85
2022/08/13 05:51:44;;;;;;;;;;;;;;;20.47;71.91;100082.23;1415659;91;20365;-85
2022/08/13 05:54:11;;;;;;;;;;;;;;;20.57;71.63;100081.25;1421951;91;20952;-85
2022/08/13 05:56:38;;;;;;;;;;;;;;;20.66;71.50;100079.09;1428116;91;20358;-85
2022/08/13 05:59:05;;;;;;;;;;;;;;;20.70;70.05;100082.97;1412544;91;20372;-85
2022/08/13 06:04:19;;;;;;;;;;;;;;;20.90;70.37;100088.15;1413331;91;20342;-86
2022/08/13 06:06:43;;;;;;;;;;;;;;;20.91;68.98;100087.91;1423986;91;20371;-85
2022/08/13 06:09:09;;;;;;;;;;;;;;;21.03;69.19;100086.66;1438579;91;20424;-85
2022/08/13 06:11:37;;;;;;;;;;;;;;;21.08;68.90;100080.06;1425718;89;20906;-85
2022/08/13 06:14:03;;;;;;;;;;;;;;;21.21;68.86;100075.59;1414166;91;20326;-85
2022/08/13 06:16:30;;;;;;;;;;;;;;;21.25;67.47;100080.28;1430642;89;20297;-85
2022/08/13 06:19:00;;;;;;;;;;;;;;;21.39;68.43;100072.90;1417040;91;20410;-85
2022/08/13 06:21:27;;;;;;;;;;;;;;;21.45;67.08;100071.98;1432282;91;20365;-86
2022/08/13 06:23:54;;;;;;;;;;;;;;;21.48;66.88;100078.78;1437333;91;20380;-85
2022/08/13 06:26:21;;;;;;;;;;;;;;;21.61;67.76;100076.73;1420651;91;20673;-85
2022/08/13 06:28:53;;;;;;;;;;;;;;;21.65;65.71;100082.48;1428384;90;20313;-85
2022/08/13 06:31:31;;;;;;;;;;;;;;;21.78;65.67;100081.45;1433173;90;20327;-85
2022/08/13 06:33:57;;;;;;;;;;;;;;;21.92;66.14;100082.09;1425336;91;20356;-85
2022/08/13 06:36:29;;;;;;;;;;;;;;;22.04;65.50;100088.34;1434558;91;20402;-86
2022/08/13 06:38:59;;;;;;;;;;;;;;;22.08;64.65;100084.13;1432878;89;21039;-86
2022/08/13 06:41:25;;;;;;;;;;;;;;;22.15;64.15;100086.17;1433444;89;20342;-85
2022/08/13 06:43:53;;;;;;;;;;;;;;;22.20;63.95;100080.13;1430278;91;20437;-85
2022/08/13 06:46:22;;;;;;;;;;;;;;;22.29;64.03;100082.77;1425892;91;20357;-85
2022/08/13 06:48:49;;;;;;;;;;;;;;;22.44;64.04;100083.16;1414256;92;20304;-85
2022/08/13 06:51:15;;;;;;;;;;;;;;;22.57;63.28;100082.62;1416220;91;21156;-85
2022/08/13 06:53:43;;;;;;;;;;;;;;;22.66;61.94;100079.32;1434545;89;20330;-85
2022/08/13 06:56:16;;;;;;;;;;;;;;;22.75;61.78;100079.78;1436841;89;20387;-85
2022/08/13 06:58:46;;;;;;;;;;;;;;;22.88;63.02;100081.43;1426398;89;21077;-85
2022/08/13 07:01:19;;;;;;;;;;;;;;;23.05;62.19;100078.85;1427540;91;20901;-85
2022/08/13 07:03:46;;;;;;;;;;;;;;;23.14;60.88;100076.06;1416762;91;20507;-85
2022/08/13 07:06:19;;;;;;;;;;;;;;;23.21;60.23;100071.34;1421272;91;20395;-85
2022/08/13 07:08:45;;;;;;;;;;;;;;;23.32;60.17;100074.53;1407237;91;20335;-86
2022/08/13 07:11:24;;;;;;;;;;;;;;;23.32;58.91;100077.23;1437218;91;20349;-85
2022/08/13 07:14:01;;;;;;;;;;;;;;;23.38;58.71;100080.31;1423951;91;20417;-86
2022/08/13 07:16:30;;;;;;;;;;;;;;;23.50;59.13;100084.86;1427884;91;20812;-85
2022/08/13 07:18:59;;;;;;;;;;;;;;;23.60;58.54;100079.12;1426942;90;20328;-85
2022/08/13 07:21:26;;;;;;;;;;;;;;;23.66;57.55;100065.18;1414811;91;20246;-86
2022/08/13 07:23:53;;;;;;;;;;;;;;;23.79;57.19;100064.89;1406453;93;20276;-85
2022/08/13 07:26:21;;;;;;;;;;;;;;;23.97;57.51;100068.45;1418401;91;20373;-85
2022/08/13 07:28:51;;;;;;;;;;;;;;;24.12;57.02;100067.35;1423373;91;20416;-85
2022/08/13 07:31:29;;;;;;;;;;;;;;;24.25;56.23;100068.36;1434008;91;20299;-85
2022/08/13 07:33:57;;;;;;;;;;;;;;;24.19;54.96;100067.99;1421437;91;20298;-85
2022/08/13 07:36:27;;;;;;;;;;;;;;;24.32;55.78;100066.86;1409143;91;20326;-85
2022/08/13 07:38:53;;;;;;;;;;;;;;;24.38;55.79;100070.45;1410829;91;20336;-85
2022/08/13 07:41:21;;;;;;;;;;;;;;;24.50;55.15;100072.56;1410676;91;20388;-85
2022/08/13 07:43:47;;;;;;;;;;;;;;;24.62;54.78;100063.80;1400756;93;20404;-86
2022/08/13 07:46:17;;;;;;;;;;;;;;;24.76;54.89;100065.08;1401120;91;20291;-85
2022/08/13 07:48:49;;;;;;;;;;;;;;;24.78;53.50;100061.33;1432052;91;20276;-85
2022/08/13 07:51:21;;;;;;;;;;;;;;;24.86;53.96;100054.09;1425261;91;20291;-85
2022/08/13 07:53:49;;;;;;;;;;;;;;;24.96;53.78;100056.41;1414555;91;20283;-85
2022/08/13 07:56:19;;;;;;;;;;;;;;;25.04;53.02;100051.09;1415674;91;20591;-85
2022/08/13 07:58:45;;;;;;;;;;;;;;;25.14;51.78;100057.19;1414890;91;20361;-85
2022/08/13 08:01:12;;;;;;;;;;;;;;;25.29;53.26;100050.63;1426367;91;20382;-85
2022/08/13 08:03:42;;;;;;;;;;;;;;;25.51;53.25;100055.98;1407816;91;20985;-85
2022/08/13 08:06:07;;;;;;;;;;;;;;;25.64;52.18;100056.12;1403882;91;20907;-85
2022/08/13 08:08:33;;;;;;;;;;;;;;;25.83;52.25;100051.16;1410316;91;20312;-85
2022/08/13 08:11:01;;;;;;;;;;;;;;;25.95;50.51;100039.64;1398696;91;20865;-85
2022/08/13 08:13:29;;;;;;;;;;;;;;;25.92;49.61;100040.13;1404673;93;20300;-85
2022/08/13 08:15:56;;;;;;;;;;;;;;;25.92;49.04;100042.84;1411449;91;20328;-85
2022/08/13 08:18:22;;;;;;;;;;;;;;;25.90;49.32;100039.59;1408874;91;20291;-85
2022/08/13 08:20:49;;;;;;;;;;;;;;;26.02;48.80;100035.34;1418034;91;20291;-85
2022/08/13 08:23:15;;;;;;;;;;;;;;;25.97;48.57;100031.23;1426775;91;20923;-85
2022/08/13 08:25:41;;;;;;;;;;;;;;;26.02;49.75;100031.28;1431077;91;20436;-85
2022/08/13 08:28:09;;;;;;;;;;;;;;;26.09;49.29;100027.25;1424621;91;21028;-85
2022/08/13 08:30:37;;;;;;;;;;;;;;;26.32;49.80;100027.41;1429603;91;20388;-85
2022/08/13 08:33:04;;;;;;;;;;;;;;;26.39;49.44;100023.67;1408071;91;20313;-85
2022/08/13 08:35:30;;;;;;;;;;;;;;;26.41;47.25;100012.81;1410077;91;20320;-85
2022/08/13 08:43:36;;;;;;;;;;;;;;;26.52;46.82;100013.17;1400945;91;20261;-85
2022/08/13 08:46:03;;;;;;;;;;;;;;;26.75;48.18;100012.48;1424101;91;20465;-85
2022/08/13 08:48:34;;;;;;;;;;;;;;;26.77;46.55;100011.14;1420061;91;20978;-85
2022/08/13 08:51:01;;;;;;;;;;;;;;;26.92;46.98;100007.66;1428658;91;20350;-85
2022/08/13 08:53:28;;;;;;;;;;;;;;;27.10;47.06;100001.47;1408843;93;20523;-85
2022/08/13 08:55:54;;;;;;;;;;;;;;;27.18;45.94;100005.06;1402076;91;20398;-85
2022/08/13 08:58:22;;;;;;;;;;;;;;;27.30;45.38;100005.63;1418459;91;20345;-85
2022/08/13 09:00:49;;;;;;;;;;;;;;;27.42;44.88;100004.85;1433742;91;20328;-85
2022/08/13 09:03:20;;;;;;;;;;;;;;;27.52;45.53;99992.36;1425960;90;20363;-85
2022/08/13 09:05:47;;;;;;;;;;;;;;;27.69;44.90;99988.84;1423729;90;20378;-85
2022/08/13 09:08:17;;;;;;;;;;;;;;;27.72;44.99;99988.84;1431220;90;20424;-85
2022/08/13 09:10:46;;;;;;;;;;;;;;;27.89;45.40;99986.14;1452188;90;20319;-85
2022/08/13 09:13:19;;;;;;;;;;;;;;;27.87;42.53;99991.02;1447019;90;20638;-85
2022/08/13 09:15:41;;;;;;;;;;;;;;;27.91;43.94;99980.44;1441571;90;20839;-85
2022/08/13 09:18:07;;;;;;;;;;;;;;;28.11;44.53;99982.32;1464163;90;20310;-85
2022/08/13 09:20:33;;;;;;;;;;;;;;;28.27;44.24;99979.81;1434487;90;20758;-85
2022/08/13 09:23:07;;;;;;;;;;;;;;;28.42;43.47;99972.19;1451279;90;20342;-85
2022/08/13 09:25:41;;;;;;;;;;;;;;;28.54;43.08;99978.67;1450234;90;20406;-85
2022/08/13 09:28:04;;;;;;;;;;;;;;;28.39;42.82;99976.80;1429609;90;20325;-85
2022/08/13 09:30:31;;;;;;;;;;;;;;;28.47;42.56;99972.73;1436011;90;20252;-85
2022/08/13 09:32:58;;;;;;;;;;;;;;;28.59;43.25;99973.77;1435998;90;20259;-85
2022/08/13 09:35:26;;;;;;;;;;;;;;;28.67;41.86;99968.56;1445024;90;20312;-85
2022/08/13 09:37:56;;;;;;;;;;;;;;;28.65;41.29;99968.02;1434185;91;21185;-85
2022/08/13 09:40:27;;;;;;;;;;;;;;;28.65;42.27;99966.66;1436525;90;20337;-85
2022/08/13 09:43:09;;;;;;;;;;;;;;;28.74;41.87;99971.81;1458656;89;20416;-85
2022/08/13 09:45:34;;;;;;;;;;;;;;;28.81;42.20;99967.97;1430614;90;20295;-85
2022/08/13 09:48:07;;;;;;;;;;;;;;;28.91;42.39;99972.80;1420218;92;20282;-85
2022/08/13 09:50:29;;;;;;;;;;;;;;;28.96;40.49;99962.44;1449523;90;20402;-86
2022/08/13 09:52:55;;;;;;;;;;;;;;;28.77;40.75;99967.17;1457110;89;20334;-85
2022/08/13 09:55:25;;;;;;;;;;;;;;;29.06;41.77;99966.51;1457588;89;20386;-85
2022/08/13 09:58:00;;;;;;;;;;;;;;;29.16;40.76;99962.34;1441708;90;20524;-85
2022/08/13 10:00:30;;;;;;;;;;;;;;;29.40;40.83;99953.45;1441447;89;20280;-85
2022/08/13 10:02:59;;;;;;;;;;;;;;;29.57;39.54;99962.04;1428546;90;20900;-85
2022/08/13 10:05:32;;;;;;;;;;;;;;;29.67;39.08;99957.91;1417950;90;20311;-85
2022/08/13 10:07:55;;;;;;;;;;;;;;;29.61;38.77;99954.94;1446367;90;20825;-85
2022/08/13 10:10:23;;;;;;;;;;;;;;;29.57;39.23;99950.33;1437269;90;20282;-85
2022/08/13 10:12:49;;;;;;;;;;;;;;;29.36;38.45;99944.23;1439826;89;20432;-85
2022/08/13 10:15:15;;;;;;;;;;;;;;;29.35;38.65;99946.14;1441837;90;20811;-85
2022/08/13 10:17:55;;;;;;;;;;;;;;;29.40;38.17;99948.00;1451090;90;20231;-85
2022/08/13 10:20:24;;;;;;;;;;;;;;;29.48;39.01;99943.31;1431932;90;20312;-85
2022/08/13 10:22:53;;;;;;;;;;;;;;;29.38;38.10;99941.48;1434740;90;20969;-86
2022/08/13 10:25:19;;;;;;;;;;;;;;;29.19;37.85;99944.06;1447005;90;20334;-85
2022/08/13 10:27:47;;;;;;;;;;;;;;;29.15;37.78;99936.20;1455763;89;20475;-85
2022/08/13 10:30:14;;;;;;;;;;;;;;;29.17;39.34;99928.54;1436409;90;21305;-85
2022/08/13 10:32:40;;;;;;;;;;;;;;;28.99;39.65;99931.91;1438466;90;20326;-85
2022/08/13 10:35:06;;;;;;;;;;;;;;;28.94;38.92;99926.48;1446813;90;20306;-86
2022/08/13 10:37:34;;;;;;;;;;;;;;;28.81;37.69;99921.68;1433157;90;20369;-85
2022/08/13 10:40:01;;;;;;;;;;;;;;;28.90;36.93;99922.71;1439728;90;20870;-85
2022/08/13 10:42:28;;;;;;;;;;;;;;;28.98;37.33;99920.20;1452200;90;20371;-85
2022/08/13 10:44:55;;;;;;;;;;;;;;;28.92;36.29;99915.08;1431579;90;20259;-85
2022/08/13 10:47:25;;;;;;;;;;;;;;;28.87;36.55;99916.47;1436530;90;20341;-85
2022/08/13 10:49:51;;;;;;;;;;;;;;;29.18;38.38;99912.47;1445917;90;20355;-85
2022/08/13 10:52:24;;;;;;;;;;;;;;;29.46;37.81;99908.17;1442313;90;20304;-85
2022/08/13 10:54:49;;;;;;;;;;;;;;;29.68;37.62;99915.09;1432535;91;20321;-85
2022/08/13 10:57:15;;;;;;;;;;;;;;;29.90;36.57;99914.61;1439183;90;20348;-85
2022/08/13 10:59:43;;;;;;;;;;;;;;;30.07;36.84;99910.08;1454121;90;20318;-85
2022/08/13 11:02:11;;;;;;;;;;;;;;;30.16;35.55;99911.62;1446725;90;20319;-86
2022/08/13 11:04:37;;;;;;;;;;;;;;;30.38;33.99;99910.53;1458444;90;20246;-86
2022/08/13 11:07:08;;;;;;;;;;;;;;;30.50;35.73;99915.61;1451837;90;20782;-85
2022/08/13 11:09:33;;;;;;;;;;;;;;;30.66;34.34;99908.81;1441012;90;20903;-85
2022/08/13 11:11:59;;;;;;;;;;;;;;;30.89;35.78;99906.36;1430990;91;20336;-85
2022/08/13 11:14:27;;;;;;;;;;;;;;;30.81;33.95;99907.82;1433902;90;20369;-85
2022/08/13 11:16:58;;;;;;;;;;;;;;;30.92;34.72;99911.23;1445828;90;20288;-85
2022/08/13 11:19:29;;;;;;;;;;;;;;;31.06;33.92;99893.54;1421315;90;20452;-85
2022/08/13 11:21:56;;;;;;;;;;;;;;;31.14;33.81;99899.70;1415764;91;20348;-85
2022/08/13 11:24:22;;;;;;;;;;;;;;;31.24;34.07;99888.59;1430442;90;20304;-85
2022/08/13 11:26:48;;;;;;;;;;;;;;;31.36;34.49;99882.16;1454577;90;20308;-85
2022/08/13 11:29:15;;;;;;;;;;;;;;;31.43;32.95;99881.20;1437242;91;20777;-85
2022/08/13 11:31:41;;;;;;;;;;;;;;;31.47;32.59;99882.21;1442525;91;20741;-85
2022/08/13 11:34:07;;;;;;;;;;;;;;;31.40;33.01;99879.63;1442399;90;20341;-85
2022/08/13 11:36:34;;;;;;;;;;;;;;;31.32;34.00;99879.72;1451787;90;20332;-85
2022/08/13 11:39:00;;;;;;;;;;;;;;;31.35;34.70;99881.88;1430421;90;20323;-85
2022/08/13 11:41:26;;;;;;;;;;;;;;;31.34;35.38;99878.87;1445332;90;20314;-86
2022/08/13 11:43:52;;;;;;;;;;;;;;;31.07;33.20;99886.39;1450251;90;20245;-85
2022/08/13 11:46:20;;;;;;;;;;;;;;;30.83;34.20;99884.32;1434210;90;20302;-86
2022/08/13 11:48:46;;;;;;;;;;;;;;;30.57;33.01;99879.98;1438104;90;20891;-85
2022/08/13 11:51:12;;;;;;;;;;;;;;;30.56;33.33;99881.66;1448444;90;20283;-85
2022/08/13 11:53:38;;;;;;;;;;;;;;;30.60;33.59;99877.23;1450952;90;20698;-85
2022/08/13 11:56:04;;;;;;;;;;;;;;;30.37;32.68;99881.63;1439201;90;20356;-86
2022/08/13 11:58:33;;;;;;;;;;;;;;;30.22;33.31;99877.17;1441974;89;20329;-85
2022/08/13 12:01:00;;;;;;;;;;;;;;;30.09;32.50;99876.47;1422535;91;20306;-85
2022/08/13 12:03:26;;;;;;;;;;;;;;;30.39;33.95;99883.52;1426566;90;20394;-85
2022/08/13 12:05:52;;;;;;;;;;;;;;;30.66;31.36;99866.48;1426922;91;20540;-85
2022/08/13 12:08:20;;;;;;;;;;;;;;;30.97;31.97;99868.25;1437012;89;20320;-85
2022/08/13 12:10:47;;;;;;;;;;;;;;;31.20;30.29;99861.61;1421110;89;21170;-85
2022/08/13 12:13:13;;;;;;;;;;;;;;;31.33;30.01;99864.92;1428706;91;20290;-85
2022/08/13 12:15:39;;;;;;;;;;;;;;;31.59;31.10;99860.41;1441071;89;21019;-85
2022/08/13 12:18:06;;;;;;;;;;;;;;;31.82;31.57;99855.34;1440753;89;20415;-85
2022/08/13 12:20:31;;;;;;;;;;;;;;;31.80;31.01;99856.76;1440131;90;20298;-86
2022/08/13 12:22:59;;;;;;;;;;;;;;;31.78;30.95;99854.31;1418666;91;20269;-85
2022/08/13 12:25:28;;;;;;;;;;;;;;;31.74;31.02;99853.31;1412915;90;20341;-85
2022/08/13 12:28:10;;;;;;;;;;;;;;;31.90;31.29;99851.91;1434156;91;20335;-85
2022/08/13 12:30:36;;;;;;;;;;;;;;;32.17;29.57;99850.30;1434640;89;20451;-86
2022/08/13 12:33:03;;;;;;;;;;;;;;;31.96;29.99;99853.98;1438677;90;20296;-86
2022/08/13 12:35:29;;;;;;;;;;;;;;;31.83;28.71;99861.06;1434526;91;20431;-85
2022/08/13 12:37:55;;;;;;;;;;;;;;;31.94;27.49;99856.77;1446530;89;20278;-85
2022/08/13 12:40:21;;;;;;;;;;;;;;;32.34;28.86;99861.97;1438317;89;20405;-85
2022/08/13 12:42:47;;;;;;;;;;;;;;;32.74;29.13;99854.00;1435778;88;20272;-85
2022/08/13 12:45:14;;;;;;;;;;;;;;;33.05;28.18;99847.27;1430876;88;20860;-85
2022/08/13 12:47:40;;;;;;;;;;;;;;;33.22;27.10;99840.53;1428838;89;20912;-82
2022/08/13 12:50:06;;;;;;;;;;;;;;;33.13;26.15;99838.30;1434375;88;20350;-83
2022/08/13 12:52:32;;;;;;;;;;;;;;;33.75;28.57;99835.34;1434160;91;21741;-83
2022/08/13 12:55:00;;;;;;;;;;;;;;;33.87;25.65;99840.48;1425379;91;20486;-86
2022/08/13 12:57:26;;;;;;;;;;;;;;;34.26;25.22;99831.16;1436247;88;20402;-82
2022/08/13 12:59:51;;;;;;;;;;;;;;;34.17;25.00;99829.77;1437584;88;20363;-82
2022/08/13 13:02:17;;;;;;;;;;;;;;;34.05;24.90;99830.39;1422059;89;20878;-83